createdAt,value
2019-01-22T00:00:10.468Z,91.80
2019-01-22T00:02:39.649Z,91.90
2019-01-22T00:05:09.275Z,91.90
2019-01-22T00:07:38.396Z,91.80
2019-01-22T00:10:09.130Z,91.80
2019-01-22T00:12:38.176Z,91.80
2019-01-22T00:15:08.812Z,91.80
2019-01-22T00:17:37.856Z,91.80
2019-01-22T00:20:08.040Z,92.20
2019-01-22T00:22:37.000Z,91.90
2019-01-22T00:25:06.645Z,91.90
2019-01-22T00:27:39.075Z,91.80
2019-01-22T00:30:11.920Z,91.80
2019-01-22T00:32:40.856Z,91.90
2019-01-22T00:35:09.952Z,92.00
2019-01-22T00:37:39.100Z,91.90
2019-01-22T00:40:10.304Z,92.00
2019-01-22T00:42:39.497Z,92.00
2019-01-22T00:45:09.756Z,92.10
2019-01-22T00:47:38.695Z,92.50
2019-01-22T00:50:09.464Z,92.20
2019-01-22T00:52:38.644Z,92.30
2019-01-22T00:55:09.310Z,92.40
2019-01-22T00:57:38.304Z,92.40
2019-01-22T01:00:23.507Z,92.50
2019-01-22T01:02:52.450Z,92.50
2019-01-22T01:05:21.468Z,92.60
2019-01-22T01:07:50.954Z,92.70
2019-01-22T01:10:19.972Z,92.70
2019-01-22T01:12:48.991Z,92.70
2019-01-22T01:15:18.247Z,92.80
2019-01-22T01:17:47.277Z,92.80
2019-01-22T01:20:18.054Z,92.90
2019-01-22T01:22:47.165Z,93.00
2019-01-22T01:25:18.188Z,93.10
2019-01-22T01:27:47.284Z,93.10
2019-01-22T01:30:18.584Z,93.00
2019-01-22T01:32:47.508Z,93.10
2019-01-22T01:35:16.507Z,93.10
2019-01-22T01:37:45.656Z,93.10
2019-01-22T01:40:16.156Z,93.10
2019-01-22T01:42:45.103Z,93.10
2019-01-22T01:45:14.403Z,93.20
2019-01-22T01:47:43.836Z,93.20
2019-01-22T01:50:14.893Z,93.20
2019-01-22T01:52:43.943Z,93.30
2019-01-22T01:55:14.509Z,93.30
2019-01-22T01:57:43.440Z,93.40
2019-01-22T02:00:17.623Z,93.50
2019-01-22T02:02:46.586Z,93.50
2019-01-22T02:05:15.536Z,93.60
2019-01-22T02:07:44.579Z,93.60
2019-01-22T02:10:19.300Z,93.70
2019-01-22T02:13:19.067Z,93.80
2019-01-22T02:15:57.744Z,93.80
2019-01-22T02:18:41.476Z,93.70
2019-01-22T02:21:32.376Z,93.70
2019-01-22T02:24:25.380Z,93.70
2019-01-22T02:27:26.719Z,93.70
2019-01-22T02:30:09.108Z,93.70
2019-01-22T02:33:18.117Z,93.70
2019-01-22T02:36:18.623Z,93.70
2019-01-22T02:39:20.096Z,93.70
2019-01-22T02:42:30.485Z,93.70
2019-01-22T02:45:26.832Z,93.70
2019-01-22T02:48:04.915Z,93.80
2019-01-22T02:51:06.182Z,93.80
2019-01-22T02:54:22.412Z,93.80
2019-01-22T02:57:11.396Z,93.70
2019-01-22T03:00:16.792Z,93.70
2019-01-22T03:03:15.448Z,93.70
2019-01-22T03:06:37.902Z,93.70
2019-01-22T03:10:03.276Z,93.80
2019-01-22T03:13:01.521Z,93.90
2019-01-22T03:16:02.972Z,94.00
2019-01-22T03:19:09.933Z,94.00
2019-01-22T03:22:02.024Z,94.00
2019-01-22T03:25:05.312Z,94.00
2019-01-22T03:28:05.620Z,94.00
2019-01-22T03:31:06.098Z,94.00
2019-01-22T03:34:06.865Z,94.00
2019-01-22T03:37:11.464Z,93.90
2019-01-22T03:40:27.725Z,94.00
2019-01-22T03:43:22.739Z,94.00
2019-01-22T03:46:08.177Z,94.10
2019-01-22T03:49:03.894Z,94.10
2019-01-22T03:51:49.772Z,94.30
2019-01-22T03:54:58.787Z,94.40
2019-01-22T03:57:41.777Z,94.40
2019-01-22T04:00:21.023Z,94.40
2019-01-22T04:02:50.127Z,94.40
2019-01-22T04:05:19.152Z,94.40
2019-01-22T04:07:48.087Z,94.40
2019-01-22T04:10:39.764Z,94.50
2019-01-22T04:13:09.211Z,94.60
2019-01-22T04:15:42.999Z,94.60
2019-01-22T04:18:12.052Z,94.60
2019-01-22T04:20:44.360Z,94.50
2019-01-22T04:23:52.933Z,94.50
2019-01-22T04:26:54.438Z,94.50
2019-01-22T04:30:13.011Z,94.40
2019-01-22T04:33:11.724Z,94.40
2019-01-22T04:36:29.650Z,94.40
2019-01-22T04:39:27.559Z,94.50
2019-01-22T04:42:41.808Z,94.50
2019-01-22T04:45:21.004Z,94.50
2019-01-22T04:48:16.982Z,94.50
2019-01-22T04:51:10.921Z,94.50
2019-01-22T04:54:18.733Z,94.60
2019-01-22T04:57:18.503Z,94.50
2019-01-22T05:00:34.395Z,94.60
2019-01-22T05:03:44.402Z,94.90
2019-01-22T05:07:03.680Z,94.50
2019-01-22T05:10:18.188Z,94.60
2019-01-22T05:13:42.581Z,94.60
2019-01-22T05:17:23.885Z,94.70
2019-01-22T05:20:17.918Z,94.70
2019-01-22T05:23:15.903Z,94.70
2019-01-22T05:26:14.143Z,94.70
2019-01-22T05:29:11.792Z,94.70
2019-01-22T05:32:23.887Z,94.50
2019-01-22T05:35:27.686Z,94.40
2019-01-22T05:38:55.551Z,94.30
2019-01-22T05:42:20.922Z,94.30
2019-01-22T05:45:11.709Z,94.20
2019-01-22T05:47:53.156Z,94.00
2019-01-22T05:51:16.985Z,93.90
2019-01-22T05:54:15.429Z,93.80
2019-01-22T05:57:18.226Z,93.70
2019-01-22T06:00:15.563Z,93.70
2019-01-22T06:02:52.663Z,93.60
2019-01-22T06:06:06.040Z,93.80
2019-01-22T06:08:52.631Z,93.70
2019-01-22T06:12:07.936Z,93.90
2019-01-22T06:14:52.008Z,93.90
2019-01-22T06:18:26.628Z,94.10
2019-01-22T06:21:32.922Z,94.20
2019-01-22T06:24:40.445Z,94.40
2019-01-22T06:27:20.229Z,94.30
2019-01-22T06:30:18.063Z,94.40
2019-01-22T06:33:12.224Z,94.50
2019-01-22T06:36:33.187Z,94.70
2019-01-22T06:39:35.166Z,94.80
2019-01-22T06:42:29.896Z,95.00
2019-01-22T06:45:46.280Z,95.00
2019-01-22T06:48:59.405Z,95.00
2019-01-22T06:51:58.530Z,95.00
2019-01-22T06:55:12.055Z,95.00
2019-01-22T06:58:34.806Z,95.10
2019-01-22T07:01:32.988Z,95.20
2019-01-22T07:04:37.888Z,95.30
2019-01-22T07:07:55.928Z,95.40
2019-01-22T07:11:05.868Z,95.50
2019-01-22T07:14:10.459Z,95.50
2019-01-22T07:17:01.000Z,95.50
2019-01-22T07:20:07.486Z,95.60
2019-01-22T07:23:13.740Z,95.50
2019-01-22T07:26:21.296Z,95.60
2019-01-22T07:29:20.954Z,95.60
2019-01-22T07:32:09.561Z,95.90
2019-01-22T07:35:20.364Z,96.30
2019-01-22T07:38:14.796Z,96.60
2019-01-22T07:41:17.996Z,96.60
2019-01-22T07:44:29.317Z,96.50
2019-01-22T07:47:24.971Z,96.50
2019-01-22T07:50:35.640Z,96.80
2019-01-22T07:53:21.388Z,96.40
2019-01-22T07:56:19.267Z,96.30
2019-01-22T07:58:58.838Z,96.20
2019-01-22T08:02:12.276Z,96.00
2019-01-22T08:05:17.192Z,95.90
2019-01-22T08:08:22.680Z,95.90
2019-01-22T08:11:30.082Z,95.90
2019-01-22T08:14:25.016Z,95.90
2019-01-22T08:17:18.930Z,95.80
2019-01-22T08:20:16.719Z,95.80
2019-01-22T08:23:31.256Z,95.90
2019-01-22T08:26:31.248Z,95.80
2019-01-22T08:29:56.732Z,95.80
2019-01-22T08:33:06.852Z,96.00
2019-01-22T08:36:01.781Z,96.00
2019-01-22T08:39:27.136Z,96.30
2019-01-22T08:42:04.065Z,96.40
2019-01-22T08:45:06.412Z,96.60
2019-01-22T08:48:21.016Z,97.10
2019-01-22T08:51:43.128Z,97.80
2019-01-22T08:54:55.204Z,98.60
2019-01-22T08:58:14.452Z,99.10
2019-01-22T09:01:08.978Z,99.30
2019-01-22T09:04:07.816Z,99.60
2019-01-22T09:07:09.310Z,99.70
2019-01-22T09:10:15.400Z,99.90
2019-01-22T09:13:15.424Z,99.90
2019-01-22T09:16:09.785Z,99.80
2019-01-22T09:19:35.279Z,99.90
2019-01-22T09:22:48.480Z,99.90
2019-01-22T09:25:48.620Z,99.90
2019-01-22T09:28:57.616Z,99.90
2019-01-22T09:31:40.702Z,99.80
2019-01-22T09:34:44.941Z,99.90
2019-01-22T09:37:28.448Z,99.90
2019-01-22T09:39:57.688Z,99.90
2019-01-22T09:42:26.629Z,99.90
2019-01-22T09:44:55.637Z,99.90
2019-01-22T09:47:24.648Z,99.90
2019-01-22T09:49:53.636Z,99.90
2019-01-22T09:52:22.604Z,99.90
2019-01-22T09:54:51.724Z,99.90
2019-01-22T09:57:20.776Z,99.90
2019-01-22T09:59:50.340Z,99.90
2019-01-22T10:02:19.352Z,99.90
2019-01-22T10:04:48.480Z,99.90
2019-01-22T10:07:17.564Z,99.90
2019-01-22T10:09:48.304Z,99.90
2019-01-22T10:12:17.429Z,99.90
2019-01-22T10:14:46.463Z,99.90
2019-01-22T10:17:15.532Z,99.90
2019-01-22T10:19:44.499Z,99.90
2019-01-22T10:22:13.793Z,99.90
2019-01-22T10:24:42.729Z,99.90
2019-01-22T10:27:18.728Z,99.90
2019-01-22T10:29:47.784Z,99.90
2019-01-22T10:32:16.804Z,99.90
2019-01-22T10:34:45.819Z,99.90
2019-01-22T10:37:14.957Z,99.90
2019-01-22T10:39:43.967Z,99.90
2019-01-22T10:42:13.044Z,99.90
2019-01-22T10:44:42.045Z,99.90
2019-01-22T10:47:10.983Z,99.90
2019-01-22T10:49:40.019Z,99.90
2019-01-22T10:52:09.067Z,99.90
2019-01-22T10:54:38.011Z,99.90
2019-01-22T10:57:07.192Z,99.90
2019-01-22T10:59:36.216Z,99.90
2019-01-22T11:02:05.348Z,99.90
2019-01-22T11:04:34.321Z,99.90
2019-01-22T11:07:03.728Z,99.90
2019-01-22T11:09:33.079Z,99.90
2019-01-22T11:12:02.164Z,99.90
2019-01-22T11:14:31.233Z,99.90
2019-01-22T11:17:00.312Z,99.90
2019-01-22T11:19:29.520Z,99.90
2019-01-22T11:21:58.454Z,99.90
2019-01-22T11:24:30.302Z,99.90
2019-01-22T11:26:58.055Z,99.90
2019-01-22T11:29:27.000Z,99.90
2019-01-22T11:31:56.000Z,99.90
2019-01-22T11:34:25.127Z,99.90
2019-01-22T11:36:57.171Z,99.90
2019-01-22T11:39:26.179Z,99.90
2019-01-22T11:41:55.193Z,99.90
2019-01-22T11:44:24.198Z,99.90
2019-01-22T11:46:53.163Z,99.90
2019-01-22T11:49:23.519Z,99.90
2019-01-22T11:51:52.624Z,99.90
2019-01-22T11:54:23.403Z,99.90
2019-01-22T11:56:52.375Z,99.90
2019-01-22T11:59:21.444Z,99.90
2019-01-22T12:01:50.460Z,99.90
2019-01-22T12:04:19.464Z,99.90
2019-01-22T12:06:48.512Z,99.90
2019-01-22T12:09:17.643Z,99.90
2019-01-22T12:11:46.648Z,99.90
2019-01-22T12:14:15.611Z,99.90
2019-01-22T12:16:44.630Z,99.90
2019-01-22T12:19:13.828Z,99.90
2019-01-22T12:21:42.793Z,99.90
2019-01-22T12:24:11.962Z,99.90
2019-01-22T12:26:40.908Z,99.90
2019-01-22T12:29:10.052Z,99.90
2019-01-22T12:31:39.024Z,99.90
2019-01-22T12:34:08.049Z,99.90
2019-01-22T12:36:37.412Z,99.90
2019-01-22T12:39:08.661Z,99.90
2019-01-22T12:41:37.600Z,99.90
2019-01-22T12:44:06.568Z,99.90
2019-01-22T12:46:35.496Z,99.90
2019-01-22T12:49:04.595Z,99.90
2019-01-22T12:51:33.844Z,99.90
2019-01-22T12:54:02.908Z,99.90
2019-01-22T12:56:31.925Z,99.90
2019-01-22T12:59:01.153Z,99.90
2019-01-22T13:01:30.231Z,99.90
2019-01-22T13:03:59.316Z,99.90
2019-01-22T13:06:28.284Z,99.90
2019-01-22T13:08:57.356Z,99.90
2019-01-22T13:11:26.379Z,99.90
2019-01-22T13:13:55.476Z,99.80
2019-01-22T13:16:24.456Z,99.90
2019-01-22T13:18:53.399Z,99.90
2019-01-22T13:21:22.555Z,99.80
2019-01-22T13:23:51.496Z,99.80
2019-01-22T13:26:20.428Z,99.80
2019-01-22T13:28:49.616Z,99.90
2019-01-22T13:31:18.724Z,99.90
2019-01-22T13:33:47.735Z,99.90
2019-01-22T13:36:23.800Z,99.80
2019-01-22T13:38:50.276Z,99.70
2019-01-22T13:41:19.283Z,99.80
2019-01-22T13:43:48.240Z,99.80
2019-01-22T13:46:17.252Z,99.90
2019-01-22T13:48:46.251Z,99.80
2019-01-22T13:51:15.364Z,99.70
2019-01-22T13:53:44.311Z,99.80
2019-01-22T13:56:18.508Z,99.80
2019-01-22T13:58:43.940Z,99.70
2019-01-22T14:01:13.015Z,99.70
2019-01-22T14:03:41.952Z,99.70
2019-01-22T14:06:10.914Z,99.90
2019-01-22T14:08:40.032Z,99.90
2019-01-22T14:11:09.036Z,99.70
2019-01-22T14:13:38.250Z,99.80
2019-01-22T14:16:07.171Z,99.80
2019-01-22T14:18:38.368Z,99.80
2019-01-22T14:21:07.437Z,99.70
2019-01-22T14:23:36.600Z,99.70
2019-01-22T14:26:05.628Z,99.80
2019-01-22T14:28:34.583Z,99.90
2019-01-22T14:31:03.611Z,99.70
2019-01-22T14:33:32.708Z,99.80
2019-01-22T14:36:01.793Z,99.70
2019-01-22T14:38:30.716Z,99.80
2019-01-22T14:40:59.736Z,99.70
2019-01-22T14:43:28.765Z,99.70
2019-01-22T14:45:57.777Z,99.80
2019-01-22T14:48:26.788Z,99.70
2019-01-22T14:50:55.762Z,99.70
2019-01-22T14:53:24.691Z,99.80
2019-01-22T14:55:53.713Z,99.80
2019-01-22T14:58:22.782Z,99.80
2019-01-22T15:00:51.940Z,99.70
2019-01-22T15:03:20.906Z,99.70
2019-01-22T15:05:49.960Z,99.70
2019-01-22T15:08:18.928Z,99.80
2019-01-22T15:10:48.120Z,99.70
2019-01-22T15:13:18.449Z,99.80
2019-01-22T15:15:47.660Z,99.70
2019-01-22T15:18:16.579Z,99.70
2019-01-22T15:20:45.820Z,99.80
2019-01-22T15:23:14.848Z,99.70
2019-01-22T15:25:43.912Z,99.60
2019-01-22T15:28:13.105Z,99.80
2019-01-22T15:30:42.073Z,99.70
2019-01-22T15:33:11.105Z,99.60
2019-01-22T15:35:40.217Z,99.60
2019-01-22T15:38:09.144Z,99.70
2019-01-22T15:40:38.485Z,99.60
2019-01-22T15:43:08.507Z,99.60
2019-01-22T15:45:41.538Z,99.60
2019-01-22T15:48:10.408Z,99.70
2019-01-22T15:50:39.440Z,99.60
2019-01-22T15:53:08.416Z,99.60
2019-01-22T15:55:37.451Z,99.60
2019-01-22T15:58:07.252Z,99.60
2019-01-22T16:00:37.659Z,99.80
2019-01-22T16:03:06.624Z,99.60
2019-01-22T16:05:35.749Z,99.60
2019-01-22T16:08:06.553Z,99.70
2019-01-22T16:10:36.619Z,99.70
2019-01-22T16:13:06.084Z,99.70
2019-01-22T16:15:35.664Z,99.70
2019-01-22T16:18:04.754Z,99.80
2019-01-22T16:20:37.731Z,99.90
2019-01-22T16:23:06.678Z,99.90
2019-01-22T16:25:37.338Z,99.90
2019-01-22T16:28:10.313Z,99.90
2019-01-22T16:30:39.556Z,99.90
2019-01-22T16:33:08.620Z,99.90
2019-01-22T16:35:37.681Z,99.90
2019-01-22T16:38:06.868Z,99.90
2019-01-22T16:40:35.975Z,99.90
2019-01-22T16:43:05.984Z,99.90
2019-01-22T16:45:36.429Z,99.90
2019-01-22T16:48:06.378Z,99.90
2019-01-22T16:50:40.613Z,99.90
2019-01-22T16:53:15.004Z,99.90
2019-01-22T16:55:45.470Z,99.90
2019-01-22T16:58:14.425Z,99.90
2019-01-22T17:00:43.432Z,99.90
2019-01-22T17:03:12.644Z,99.90
2019-01-22T17:05:41.680Z,99.90
2019-01-22T17:08:10.856Z,99.90
2019-01-22T17:10:39.932Z,99.90
2019-01-22T17:13:09.030Z,99.90
2019-01-22T17:15:38.055Z,99.90
2019-01-22T17:18:08.420Z,99.90
2019-01-22T17:20:38.666Z,99.90
2019-01-22T17:23:07.608Z,99.90
2019-01-22T17:25:36.735Z,99.90
2019-01-22T17:28:05.966Z,99.90
2019-01-22T17:30:35.051Z,99.90
2019-01-22T17:33:13.706Z,99.90
2019-01-22T17:35:45.468Z,99.90
2019-01-22T17:38:15.095Z,99.90
2019-01-22T17:40:44.063Z,99.90
2019-01-22T17:43:12.992Z,99.90
2019-01-22T17:45:42.592Z,99.90
2019-01-22T17:48:11.680Z,99.90
2019-01-22T17:50:40.777Z,99.90
2019-01-22T17:53:12.204Z,99.90
2019-01-22T17:55:41.619Z,99.90
2019-01-22T17:58:10.835Z,99.90
2019-01-22T18:00:41.691Z,99.90
2019-01-22T18:03:10.812Z,99.90
2019-01-22T18:05:39.983Z,99.90
2019-01-22T18:08:09.889Z,99.90
2019-01-22T18:10:39.136Z,99.90
2019-01-22T18:13:08.336Z,99.90
2019-01-22T18:15:37.279Z,99.90
2019-01-22T18:18:06.231Z,99.90
2019-01-22T18:20:35.562Z,99.90
2019-01-22T18:23:04.540Z,99.90
2019-01-22T18:25:33.500Z,99.90
2019-01-22T18:28:02.604Z,99.90
2019-01-22T18:30:31.582Z,99.90
2019-01-22T18:33:00.765Z,99.90
2019-01-22T18:35:44.065Z,99.90
2019-01-22T18:38:15.079Z,99.90
2019-01-22T18:40:44.091Z,99.90
2019-01-22T18:43:13.049Z,99.90
2019-01-22T18:45:42.484Z,99.90
2019-01-22T18:48:11.628Z,99.90
2019-01-22T18:50:40.726Z,99.90
2019-01-22T18:53:09.908Z,99.90
2019-01-22T18:55:39.076Z,99.90
2019-01-22T18:58:08.160Z,99.90
2019-01-22T19:00:37.291Z,99.90
2019-01-22T19:03:06.588Z,99.90
2019-01-22T19:05:35.616Z,99.90
2019-01-22T19:08:04.628Z,99.90
2019-01-22T19:10:33.637Z,99.90
2019-01-22T19:13:02.592Z,99.90
2019-01-22T19:15:31.536Z,99.90
2019-01-22T19:18:00.734Z,99.90
2019-01-22T19:20:29.703Z,99.90
2019-01-22T19:22:58.653Z,99.90
2019-01-22T19:25:28.307Z,99.90
2019-01-22T19:27:57.464Z,99.90
2019-01-22T19:30:28.299Z,99.90
2019-01-22T19:32:57.288Z,99.90
2019-01-22T19:35:26.332Z,99.90
2019-01-22T19:37:55.289Z,99.90
2019-01-22T19:43:06.602Z,99.90
2019-01-22T19:45:36.656Z,99.90
2019-01-22T19:48:05.765Z,99.90
2019-01-22T19:50:34.731Z,99.90
2019-01-22T19:53:03.811Z,99.90
2019-01-22T19:55:32.751Z,99.90
2019-01-22T19:58:01.791Z,99.90
2019-01-22T20:00:38.349Z,99.90
2019-01-22T20:03:08.616Z,99.90
2019-01-22T20:05:37.548Z,99.90
2019-01-22T20:08:07.399Z,99.90
2019-01-22T20:10:36.506Z,99.90
2019-01-22T20:13:05.557Z,99.90
2019-01-22T20:15:34.568Z,99.90
2019-01-22T20:18:05.659Z,99.90
2019-01-22T20:20:34.736Z,99.90
2019-01-22T20:23:03.669Z,99.90
2019-01-22T20:25:32.830Z,99.90
2019-01-22T20:28:01.995Z,99.90
2019-01-22T20:30:33.358Z,99.90
2019-01-22T20:33:02.590Z,99.90
2019-01-22T20:35:31.592Z,99.90
2019-01-22T20:38:00.598Z,99.90
2019-01-22T20:40:29.563Z,99.90
2019-01-22T20:42:58.623Z,99.90
2019-01-22T20:45:28.869Z,99.90
2019-01-22T20:47:57.872Z,99.90
2019-01-22T20:50:26.886Z,99.90
2019-01-22T20:52:55.992Z,99.90
2019-01-22T20:55:25.734Z,99.90
2019-01-22T20:57:55.354Z,99.90
2019-01-22T21:00:24.976Z,99.90
2019-01-22T21:02:54.067Z,99.90
2019-01-22T21:05:28.181Z,99.90
2019-01-22T21:07:57.364Z,99.90
2019-01-22T21:10:28.520Z,99.90
2019-01-22T21:12:57.647Z,99.90
2019-01-22T21:15:26.920Z,99.90
2019-01-22T21:17:55.936Z,99.90
2019-01-22T21:20:24.884Z,99.90
2019-01-22T21:22:53.919Z,99.90
2019-01-22T21:25:23.101Z,99.90
2019-01-22T21:27:52.368Z,99.90
2019-01-22T21:30:24.315Z,99.90
2019-01-22T21:32:53.323Z,99.90
2019-01-22T21:35:22.344Z,99.90
2019-01-22T21:37:51.404Z,99.90
2019-01-22T21:40:20.549Z,99.90
2019-01-22T21:42:50.053Z,99.90
2019-01-22T21:45:19.257Z,99.90
2019-01-22T21:47:48.276Z,99.90
2019-01-22T21:50:17.320Z,99.90
2019-01-22T21:52:46.420Z,99.90
2019-01-22T21:55:17.857Z,99.90
2019-01-22T21:57:46.871Z,99.90
2019-01-22T22:00:18.316Z,99.90
2019-01-22T22:02:47.584Z,99.90
2019-01-22T22:05:17.651Z,99.90
2019-01-22T22:07:46.683Z,99.90
2019-01-22T22:10:17.665Z,99.90
2019-01-22T22:12:47.563Z,99.90
2019-01-22T22:15:18.817Z,99.90
2019-01-22T22:17:47.851Z,99.90
2019-01-22T22:20:17.071Z,99.90
2019-01-22T22:22:46.903Z,99.90
2019-01-22T22:25:17.789Z,99.90
2019-01-22T22:27:46.899Z,99.90
2019-01-22T22:30:30.211Z,99.90
2019-01-22T22:32:59.183Z,99.90
2019-01-22T22:35:28.240Z,99.90
2019-01-22T22:37:57.167Z,99.90
2019-01-22T22:40:26.192Z,99.90
2019-01-22T22:42:55.316Z,99.90
2019-01-22T22:45:24.391Z,99.90
2019-01-22T22:47:53.600Z,99.90
2019-01-22T22:50:24.783Z,99.90
2019-01-22T22:52:53.954Z,99.90
2019-01-22T22:55:23.052Z,99.90
2019-01-22T22:57:52.141Z,99.90
2019-01-22T23:01:01.351Z,99.90
2019-01-22T23:03:30.312Z,99.90
2019-01-22T23:05:59.403Z,99.90
2019-01-22T23:08:28.808Z,99.90
2019-01-22T23:10:57.735Z,99.90
2019-01-22T23:13:26.664Z,99.90
2019-01-22T23:15:55.799Z,99.90
2019-01-22T23:18:24.808Z,99.90
2019-01-22T23:20:53.815Z,99.90
2019-01-22T23:23:22.973Z,99.90
2019-01-22T23:25:51.889Z,99.90
2019-01-22T23:28:20.955Z,99.90
2019-01-22T23:30:50.091Z,99.90
2019-01-22T23:33:19.219Z,99.90
2019-01-22T23:35:48.362Z,99.90
2019-01-22T23:38:17.431Z,99.90
2019-01-22T23:40:46.496Z,99.90
2019-01-22T23:43:15.502Z,99.90
2019-01-22T23:45:44.696Z,99.90
2019-01-22T23:48:13.756Z,99.90
2019-01-22T23:50:42.800Z,99.90
2019-01-22T23:53:11.901Z,99.90
2019-01-22T23:55:40.808Z,99.90
2019-01-22T23:58:09.969Z,99.90
